createdAt,value
2023-12-12T00:00:44.270Z,96049.94
2023-12-12T00:03:12.428Z,96047.63
2023-12-12T00:05:40.460Z,96053.50
2023-12-12T00:08:08.519Z,96060.44
2023-12-12T00:10:36.765Z,96050.88
2023-12-12T00:13:04.848Z,96057.59
2023-12-12T00:15:34.259Z,96055.28
2023-12-12T00:18:02.451Z,96047.59
2023-12-12T00:20:30.598Z,96057.19
2023-12-12T00:22:58.677Z,96062.75
2023-12-12T00:25:26.817Z,96057.91
2023-12-12T00:27:54.952Z,96064.34
2023-12-12T00:30:22.994Z,96061.34
2023-12-12T00:32:52.395Z,96065.59
2023-12-12T00:35:20.473Z,96067.56
2023-12-12T00:37:48.502Z,96062.31
2023-12-12T00:40:16.810Z,96050.84
2023-12-12T00:42:44.983Z,96065.03
2023-12-12T00:45:13.170Z,96061.97
2023-12-12T00:47:41.525Z,96067.66
2023-12-12T00:50:11.640Z,96069.09
2023-12-12T00:53:06.645Z,96069.88
2023-12-12T00:55:34.881Z,96060.97
2023-12-12T00:58:03.125Z,96069.50
2023-12-12T01:00:31.201Z,96069.88
2023-12-12T01:02:59.299Z,96065.63
2023-12-12T01:05:28.832Z,96069.31
2023-12-12T01:07:57.042Z,96063.81
2023-12-12T01:10:25.192Z,96070.03
2023-12-12T01:12:53.387Z,96075.81
2023-12-12T01:15:21.476Z,96079.81
2023-12-12T01:17:50.007Z,96064.59
2023-12-12T01:20:18.316Z,96071.50
2023-12-12T01:22:47.700Z,96065.44
2023-12-12T01:25:15.930Z,96070.50
2023-12-12T01:27:44.861Z,96075.75
2023-12-12T01:30:13.646Z,96060.75
2023-12-12T01:32:41.915Z,96044.31
2023-12-12T01:35:10.970Z,96036.78
2023-12-12T01:37:39.076Z,96030.75
2023-12-12T01:40:10.861Z,96034.38
2023-12-12T01:42:38.887Z,96037.50
2023-12-12T01:45:08.889Z,96034.53
2023-12-12T01:47:37.117Z,96035.19
2023-12-12T01:50:07.758Z,96038.03
2023-12-12T01:52:36.931Z,96048.13
2023-12-12T01:55:06.061Z,96038.03
2023-12-12T01:57:35.508Z,96035.84
2023-12-12T02:00:03.897Z,96049.47
2023-12-12T02:02:40.760Z,96044.97
2023-12-12T02:05:09.303Z,96030.22
2023-12-12T02:07:38.606Z,96029.63
2023-12-12T02:10:07.661Z,96040.59
2023-12-12T02:12:37.089Z,96037.13
2023-12-12T02:15:06.263Z,96021.75
2023-12-12T02:17:34.688Z,96021.53
2023-12-12T02:20:03.159Z,96015.31
2023-12-12T02:22:32.648Z,96006.59
2023-12-12T02:25:00.956Z,95994.28
2023-12-12T02:27:29.402Z,96004.78
2023-12-12T02:29:57.695Z,96003.16
2023-12-12T02:32:25.766Z,95996.91
2023-12-12T02:34:53.826Z,96006.22
2023-12-12T02:37:22.328Z,96014.06
2023-12-12T02:39:51.835Z,96015.53
2023-12-12T02:42:20.170Z,96009.88
2023-12-12T02:44:48.240Z,96018.69
2023-12-12T02:47:16.651Z,96022.16
2023-12-12T02:49:45.202Z,96026.03
2023-12-12T02:52:14.095Z,96015.31
2023-12-12T02:54:43.958Z,96013.94
2023-12-12T02:57:14.060Z,96014.06
2023-12-12T02:59:42.557Z,96017.81
2023-12-12T03:02:11.040Z,96020.03
2023-12-12T03:04:44.594Z,96012.91
2023-12-12T03:07:14.223Z,96018.59
2023-12-12T03:09:42.768Z,96009.31
2023-12-12T03:12:11.281Z,96008.28
2023-12-12T03:14:41.187Z,96013.78
2023-12-12T03:17:09.492Z,95999.63
2023-12-12T03:19:37.868Z,95993.53
2023-12-12T03:22:07.217Z,95998.59
2023-12-12T03:24:35.716Z,95993.75
2023-12-12T03:27:09.907Z,95992.75
2023-12-12T03:29:38.320Z,95991.34
2023-12-12T03:32:09.828Z,95997.00
2023-12-12T03:34:38.325Z,95984.63
2023-12-12T03:37:07.322Z,95983.84
2023-12-12T03:39:36.762Z,95977.41
2023-12-12T03:42:29.898Z,95983.72
2023-12-12T03:44:58.234Z,95963.84
2023-12-12T03:47:28.070Z,95961.66
2023-12-12T03:49:56.471Z,95960.09
2023-12-12T03:52:25.010Z,95954.63
2023-12-12T03:54:54.167Z,95946.19
2023-12-12T03:57:25.250Z,95944.28
2023-12-12T03:59:54.306Z,95941.69
2023-12-12T04:02:22.515Z,95945.56
2023-12-12T04:04:52.506Z,95945.78
2023-12-12T04:07:21.217Z,95939.16
2023-12-12T04:09:49.737Z,95940.53
2023-12-12T04:12:18.253Z,95944.84
2023-12-12T04:14:47.002Z,95940.03
2023-12-12T04:17:15.462Z,95942.28
2023-12-12T04:19:43.990Z,95940.69
2023-12-12T04:22:13.785Z,95946.16
2023-12-12T04:24:42.032Z,95939.88
2023-12-12T04:27:10.328Z,95946.97
2023-12-12T04:29:39.305Z,95938.28
2023-12-12T04:32:09.206Z,95941.81
2023-12-12T04:34:37.615Z,95935.38
2023-12-12T04:37:06.353Z,95945.69
2023-12-12T04:39:37.535Z,95940.56
2023-12-12T04:42:09.233Z,95936.53
2023-12-12T04:44:38.053Z,95942.66
2023-12-12T04:47:14.338Z,95934.56
2023-12-12T04:49:42.996Z,95928.22
2023-12-12T04:52:22.636Z,95925.94
2023-12-12T04:54:52.529Z,95920.13
2023-12-12T04:57:20.867Z,95914.06
2023-12-12T04:59:49.812Z,95921.94
2023-12-12T05:02:18.326Z,95920.91
2023-12-12T05:04:48.501Z,95925.72
2023-12-12T05:07:18.512Z,95927.53
2023-12-12T05:09:47.166Z,95936.66
2023-12-12T05:12:19.154Z,95928.34
2023-12-12T05:14:47.515Z,95928.78
2023-12-12T05:17:15.866Z,95928.66
2023-12-12T05:19:44.641Z,95927.41
2023-12-12T05:22:13.696Z,95922.75
2023-12-12T05:24:42.283Z,95926.97
2023-12-12T05:27:10.592Z,95923.31
2023-12-12T05:29:42.146Z,95926.16
2023-12-12T05:32:10.597Z,95927.19
2023-12-12T05:34:38.829Z,95919.94
2023-12-12T05:37:09.498Z,95917.94
2023-12-12T05:39:38.109Z,95904.44
2023-12-12T05:42:08.311Z,95909.22
2023-12-12T05:44:36.679Z,95906.81
2023-12-12T05:47:06.754Z,95893.25
2023-12-12T05:49:35.794Z,95893.03
2023-12-12T05:52:06.336Z,95909.53
2023-12-12T05:54:34.919Z,95910.78
2023-12-12T05:57:03.562Z,95896.69
2023-12-12T05:59:32.293Z,95900.06
2023-12-12T06:02:02.407Z,95906.31
2023-12-12T06:04:32.726Z,95907.47
2023-12-12T06:07:03.313Z,95905.88
2023-12-12T06:09:32.382Z,95898.81
2023-12-12T06:14:56.083Z,95895.97
2023-12-12T06:17:25.075Z,95895.28
2023-12-12T06:19:55.499Z,95880.34
2023-12-12T06:22:24.342Z,95886.41
2023-12-12T06:24:52.763Z,95883.69
2023-12-12T06:27:24.548Z,95873.41
2023-12-12T06:29:53.748Z,95882.44
2023-12-12T06:32:23.908Z,95896.38
2023-12-12T06:34:52.584Z,95893.53
2023-12-12T06:37:23.216Z,95873.44
2023-12-12T06:39:51.665Z,95871.25
2023-12-12T06:42:20.661Z,95858.00
2023-12-12T06:44:48.916Z,95851.47
2023-12-12T06:47:17.677Z,95854.50
2023-12-12T06:49:48.694Z,95851.78
2023-12-12T06:52:17.695Z,95847.66
2023-12-12T06:54:47.477Z,95841.25
2023-12-12T06:57:16.101Z,95850.09
2023-12-12T06:59:44.362Z,95854.91
2023-12-12T07:02:12.931Z,95854.09
2023-12-12T07:04:41.419Z,95859.34
2023-12-12T07:07:10.694Z,95851.47
2023-12-12T07:09:39.170Z,95858.91
2023-12-12T07:12:11.003Z,95861.88
2023-12-12T07:14:39.953Z,95861.88
2023-12-12T07:17:08.587Z,95868.88
2023-12-12T07:19:37.006Z,95877.47
2023-12-12T07:22:06.819Z,95887.03
2023-12-12T07:24:35.362Z,95887.13
2023-12-12T07:27:05.833Z,95879.41
2023-12-12T07:29:36.681Z,95883.63
2023-12-12T07:32:05.809Z,95872.75
2023-12-12T07:34:35.810Z,95861.56
2023-12-12T07:37:04.783Z,95859.97
2023-12-12T07:39:32.997Z,95844.97
2023-12-12T07:42:04.472Z,95835.94
2023-12-12T07:44:35.194Z,95840.97
2023-12-12T07:47:03.725Z,95849.66
2023-12-12T07:49:32.959Z,95851.25
2023-12-12T07:52:02.124Z,95852.19
2023-12-12T07:54:31.264Z,95850.94
2023-12-12T07:56:59.948Z,95842.28
2023-12-12T07:59:28.879Z,95845.13
2023-12-12T08:01:58.684Z,95848.69
2023-12-12T08:04:27.618Z,95841.25
2023-12-12T08:06:56.160Z,95839.19
2023-12-12T08:09:24.995Z,95836.78
2023-12-12T08:11:53.550Z,95833.03
2023-12-12T08:14:22.328Z,95830.97
2023-12-12T08:16:50.633Z,95823.31
2023-12-12T08:19:22.383Z,95818.84
2023-12-12T08:21:50.709Z,95816.13
2023-12-12T08:24:19.539Z,95812.25
2023-12-12T08:26:49.156Z,95793.06
2023-12-12T08:29:18.250Z,95782.53
2023-12-12T08:31:48.377Z,95792.03
2023-12-12T08:34:16.959Z,95798.31
2023-12-12T08:36:46.936Z,95797.63
2023-12-12T08:39:15.648Z,95794.44
2023-12-12T08:41:44.229Z,95783.91
2023-12-12T08:44:13.117Z,95790.66
2023-12-12T08:46:45.616Z,95786.22
2023-12-12T08:49:16.893Z,95785.16
2023-12-12T08:51:47.065Z,95784.94
2023-12-12T08:54:15.806Z,95786.53
2023-12-12T08:56:46.812Z,95791.81
2023-12-12T08:59:15.268Z,95793.66
2023-12-12T09:01:44.071Z,95787.13
2023-12-12T09:04:15.779Z,95788.38
2023-12-12T09:06:44.560Z,95798.22
2023-12-12T09:09:14.999Z,95796.06
2023-12-12T09:11:43.627Z,95803.03
2023-12-12T09:14:12.237Z,95793.97
2023-12-12T09:16:41.022Z,95802.22
2023-12-12T09:19:11.171Z,95803.13
2023-12-12T09:21:39.617Z,95786.53
2023-12-12T09:24:09.152Z,95773.59
2023-12-12T09:26:39.489Z,95766.31
2023-12-12T09:29:07.802Z,95769.59
2023-12-12T09:32:00.367Z,95758.31
2023-12-12T09:34:30.418Z,95764.22
2023-12-12T09:37:01.885Z,95764.94
2023-12-12T09:39:30.412Z,95766.97
2023-12-12T09:42:04.518Z,95765.72
2023-12-12T09:44:34.870Z,95759.09
2023-12-12T09:47:06.901Z,95749.03
2023-12-12T09:49:37.156Z,95740.56
2023-12-12T09:52:09.701Z,95734.72
2023-12-12T09:54:39.396Z,95722.47
2023-12-12T09:57:12.479Z,95724.88
2023-12-12T09:59:42.063Z,95734.63
2023-12-12T10:02:21.677Z,95725.09
2023-12-12T10:04:52.910Z,95706.03
2023-12-12T10:07:22.421Z,95712.31
2023-12-12T10:09:51.368Z,95705.00
2023-12-12T10:12:22.039Z,95697.22
2023-12-12T10:14:50.678Z,95701.22
2023-12-12T10:17:24.886Z,95694.59
2023-12-12T10:20:02.072Z,95693.81
2023-12-12T10:22:33.813Z,95678.47
2023-12-12T10:25:12.960Z,95655.56
2023-12-12T10:27:46.852Z,95647.81
2023-12-12T10:30:17.460Z,95637.06
2023-12-12T10:32:48.154Z,95637.53
2023-12-12T10:35:18.934Z,95621.97
2023-12-12T10:37:47.952Z,95626.41
2023-12-12T10:40:24.594Z,95634.31
2023-12-12T10:42:56.057Z,95631.91
2023-12-12T10:45:25.955Z,95632.72
2023-12-12T10:47:56.696Z,95637.06
2023-12-12T10:50:29.131Z,95641.88
2023-12-12T10:52:58.449Z,95631.44
2023-12-12T10:55:27.782Z,95629.63
2023-12-12T10:57:59.219Z,95612.91
2023-12-12T11:00:29.349Z,95610.94
2023-12-12T11:03:06.424Z,95611.84
2023-12-12T11:05:35.217Z,95604.97
2023-12-12T11:08:07.430Z,95615.47
2023-12-12T11:10:37.349Z,95623.16
2023-12-12T11:13:09.225Z,95619.16
2023-12-12T11:15:39.316Z,95607.13
2023-12-12T11:18:11.337Z,95609.53
2023-12-12T11:20:42.213Z,95600.22
2023-12-12T11:23:10.080Z,95589.69
2023-12-12T11:26:04.701Z,95578.94
2023-12-12T11:28:37.036Z,95572.97
2023-12-12T11:31:11.256Z,95562.66
2023-12-12T11:34:12.443Z,95562.53
2023-12-12T11:36:58.836Z,95548.00
2023-12-12T11:39:39.928Z,95552.00
2023-12-12T11:42:18.494Z,95547.53
2023-12-12T11:44:52.113Z,95550.03
2023-12-12T11:47:23.938Z,95553.13
2023-12-12T11:49:52.677Z,95543.41
2023-12-12T11:52:51.628Z,95545.44
2023-12-12T11:55:22.578Z,95537.00
2023-12-12T11:57:51.632Z,95517.06
2023-12-12T12:00:22.426Z,95518.97
2023-12-12T12:02:51.137Z,95511.00
2023-12-12T12:05:19.698Z,95500.69
2023-12-12T12:07:48.862Z,95494.63
2023-12-12T12:10:17.692Z,95483.84
2023-12-12T12:12:54.308Z,95473.72
2023-12-12T12:15:28.192Z,95463.13
2023-12-12T12:17:58.559Z,95471.25
2023-12-12T12:20:27.610Z,95469.97
2023-12-12T12:22:56.747Z,95454.72
2023-12-12T12:25:28.774Z,95447.88
2023-12-12T12:27:59.326Z,95438.22
2023-12-12T12:30:30.012Z,95445.72
2023-12-12T12:33:03.835Z,95434.16
2023-12-12T12:35:36.732Z,95434.31
2023-12-12T12:38:25.518Z,95428.31
2023-12-12T12:40:54.401Z,95433.44
2023-12-12T12:43:24.172Z,95432.06
2023-12-12T12:45:57.815Z,95434.72
2023-12-12T12:48:31.108Z,95443.66
2023-12-12T12:51:00.393Z,95437.81
2023-12-12T12:53:29.825Z,95435.44
2023-12-12T12:56:00.265Z,95430.00
2023-12-12T12:58:29.112Z,95433.75
2023-12-12T13:00:59.069Z,95435.34
2023-12-12T13:03:27.642Z,95451.38
2023-12-12T13:05:56.753Z,95450.56
2023-12-12T13:08:25.262Z,95448.81
2023-12-12T13:10:53.731Z,95450.16
2023-12-12T13:13:22.817Z,95460.97
2023-12-12T13:15:51.713Z,95457.53
2023-12-12T13:18:22.329Z,95460.72
2023-12-12T13:20:51.691Z,95470.69
2023-12-12T13:23:20.332Z,95463.28
2023-12-12T13:25:50.349Z,95459.94
2023-12-12T13:28:19.687Z,95459.22
2023-12-12T13:30:48.126Z,95452.16
2023-12-12T13:33:16.788Z,95443.25
2023-12-12T13:35:47.207Z,95439.00
2023-12-12T13:38:15.773Z,95424.00
2023-12-12T13:40:44.514Z,95405.03
2023-12-12T13:43:15.920Z,95408.50
2023-12-12T13:45:47.748Z,95397.19
2023-12-12T13:48:19.376Z,95377.22
2023-12-12T13:50:54.100Z,95380.38
2023-12-12T13:53:23.322Z,95369.63
2023-12-12T13:55:52.328Z,95387.28
2023-12-12T13:58:21.584Z,95383.03
2023-12-12T14:00:50.715Z,95372.25
2023-12-12T14:03:20.423Z,95367.78
2023-12-12T14:06:16.207Z,95361.41
2023-12-12T14:08:45.869Z,95369.84
2023-12-12T14:11:17.807Z,95366.97
2023-12-12T14:13:46.632Z,95365.69
2023-12-12T14:16:16.945Z,95361.22
2023-12-12T14:18:46.861Z,95371.19
2023-12-12T14:21:16.718Z,95376.22
2023-12-12T14:23:46.677Z,95366.50
2023-12-12T14:26:15.397Z,95369.38
2023-12-12T14:28:45.810Z,95365.69
2023-12-12T14:31:15.908Z,95366.97
2023-12-12T14:33:45.422Z,95366.44
2023-12-12T14:36:14.434Z,95371.13
2023-12-12T14:38:46.210Z,95359.56
2023-12-12T14:41:16.918Z,95354.56
2023-12-12T14:43:51.740Z,95352.41
2023-12-12T14:46:20.429Z,95362.69
2023-12-12T14:48:49.484Z,95364.03
2023-12-12T14:51:24.131Z,95358.28
2023-12-12T14:53:56.234Z,95347.75
2023-12-12T14:56:25.163Z,95345.38
2023-12-12T14:58:53.838Z,95338.66
2023-12-12T15:01:22.894Z,95335.78
2023-12-12T15:03:51.534Z,95324.53
2023-12-12T15:06:20.820Z,95318.16
2023-12-12T15:08:49.599Z,95317.34
2023-12-12T15:11:19.668Z,95320.56
2023-12-12T15:13:48.043Z,95324.16
2023-12-12T15:16:16.953Z,95317.84
2023-12-12T15:18:45.289Z,95332.38
2023-12-12T15:21:16.358Z,95329.19
2023-12-12T15:23:45.101Z,95329.47
2023-12-12T15:26:13.878Z,95320.75
2023-12-12T15:28:45.824Z,95314.91
2023-12-12T15:31:14.706Z,95301.97
2023-12-12T15:33:43.330Z,95308.78
2023-12-12T15:36:12.767Z,95314.84
2023-12-12T15:38:41.006Z,95299.59
2023-12-12T15:41:09.819Z,95296.16
2023-12-12T15:43:38.061Z,95308.28
2023-12-12T15:46:09.142Z,95317.25
2023-12-12T15:48:37.702Z,95304.56
2023-12-12T15:51:09.074Z,95303.22
2023-12-12T15:53:37.914Z,95312.13
2023-12-12T15:56:12.059Z,95309.81
2023-12-12T15:59:04.932Z,95316.91
2023-12-12T16:01:38.587Z,95315.56
2023-12-12T16:04:07.495Z,95300.56
2023-12-12T16:06:35.947Z,95305.28
2023-12-12T16:09:15.216Z,95282.38
2023-12-12T16:11:47.981Z,95266.81
2023-12-12T16:14:16.721Z,95269.22
2023-12-12T16:16:47.454Z,95269.69
2023-12-12T16:19:16.793Z,95268.34
2023-12-12T16:21:45.753Z,95270.41
2023-12-12T16:24:14.288Z,95270.16
2023-12-12T16:26:43.345Z,95257.25
2023-12-12T16:29:12.773Z,95250.44
2023-12-12T16:31:41.925Z,95256.78
2023-12-12T16:34:12.537Z,95261.25
2023-12-12T16:36:42.727Z,95245.47
2023-12-12T16:39:12.702Z,95248.38
2023-12-12T16:41:42.911Z,95251.19
2023-12-12T16:44:11.493Z,95250.41
2023-12-12T16:46:39.828Z,95233.81
2023-12-12T16:49:08.486Z,95233.63
2023-12-12T16:51:44.548Z,95242.31
2023-12-12T16:54:15.153Z,95246.72
2023-12-12T16:56:47.014Z,95240.91
2023-12-12T16:59:20.143Z,95229.66
2023-12-12T17:01:48.896Z,95230.16
2023-12-12T17:04:19.290Z,95243.84
2023-12-12T17:06:50.329Z,95247.03
2023-12-12T17:09:19.192Z,95249.91
2023-12-12T17:11:47.668Z,95248.63
2023-12-12T17:14:16.264Z,95252.56
2023-12-12T17:16:45.549Z,95252.31
2023-12-12T17:19:14.437Z,95246.72
2023-12-12T17:21:43.071Z,95245.94
2023-12-12T17:24:13.166Z,95244.66
2023-12-12T17:26:41.600Z,95254.69
2023-12-12T17:29:11.034Z,95259.44
2023-12-12T17:31:40.123Z,95268.72
2023-12-12T17:34:08.778Z,95277.28
2023-12-12T17:36:37.406Z,95298.78
2023-12-12T17:39:06.724Z,95291.75
2023-12-12T17:41:38.002Z,95290.47
2023-12-12T17:44:07.463Z,95282.84
2023-12-12T17:46:36.036Z,95280.53
2023-12-12T17:49:05.061Z,95280.03
2023-12-12T17:51:33.896Z,95270.38
2023-12-12T17:54:03.405Z,95269.59
2023-12-12T17:56:31.759Z,95251.75
2023-12-12T17:59:03.749Z,95244.59
2023-12-12T18:01:36.170Z,95248.56
2023-12-12T18:04:05.185Z,95250.41
2023-12-12T18:06:34.103Z,95257.81
2023-12-12T18:09:06.418Z,95263.63
2023-12-12T18:11:35.329Z,95268.59
2023-12-12T18:14:05.828Z,95268.59
2023-12-12T18:16:36.041Z,95257.34
2023-12-12T18:19:05.467Z,95240.25
2023-12-12T18:21:34.826Z,95249.72
2023-12-12T18:24:04.044Z,95239.66
2023-12-12T18:26:33.352Z,95236.25
2023-12-12T18:29:02.151Z,95241.28
2023-12-12T18:31:33.042Z,95247.13
2023-12-12T18:34:04.586Z,95257.19
2023-12-12T18:36:33.347Z,95258.53
2023-12-12T18:39:06.779Z,95251.88
2023-12-12T18:41:36.822Z,95253.47
2023-12-12T18:44:07.934Z,95244.00
2023-12-12T18:46:38.368Z,95239.75
2023-12-12T18:49:07.200Z,95246.41
2023-12-12T18:51:35.936Z,95246.16
2023-12-12T18:54:06.596Z,95251.47
2023-12-12T18:56:35.750Z,95239.03
2023-12-12T18:59:06.064Z,95248.00
2023-12-12T19:01:36.279Z,95244.06
2023-12-12T19:04:07.364Z,95240.41
2023-12-12T19:06:36.633Z,95239.34
2023-12-12T19:09:05.418Z,95240.47
2023-12-12T19:11:39.438Z,95238.63
2023-12-12T19:14:08.085Z,95246.44
2023-12-12T19:16:37.569Z,95239.88
2023-12-12T19:19:08.380Z,95240.69
2023-12-12T19:21:37.386Z,95228.88
2023-12-12T19:24:08.388Z,95205.94
2023-12-12T19:26:36.794Z,95198.28
2023-12-12T19:29:06.456Z,95196.19
2023-12-12T19:31:35.695Z,95188.03
2023-12-12T19:34:07.067Z,95190.75
2023-12-12T19:36:36.036Z,95187.03
2023-12-12T19:39:05.830Z,95180.94
2023-12-12T19:41:39.144Z,95185.41
2023-12-12T19:44:07.751Z,95184.31
2023-12-12T19:46:36.315Z,95175.63
2023-12-12T19:49:06.665Z,95167.97
2023-12-12T19:51:35.710Z,95177.69
2023-12-12T19:54:04.658Z,95182.97
2023-12-12T19:56:33.214Z,95182.69
2023-12-12T19:59:02.836Z,95184.03
2023-12-12T20:01:31.350Z,95190.88
2023-12-12T20:03:59.941Z,95175.88
2023-12-12T20:06:29.836Z,95176.59
2023-12-12T20:09:00.071Z,95183.19
2023-12-12T20:11:29.285Z,95189.25
2023-12-12T20:13:58.172Z,95198.19
2023-12-12T20:16:26.535Z,95189.25
2023-12-12T20:18:55.373Z,95188.69
2023-12-12T20:21:24.494Z,95195.00
2023-12-12T20:23:54.443Z,95203.44
2023-12-12T20:26:23.012Z,95199.78
2023-12-12T20:28:51.807Z,95209.22
2023-12-12T20:31:21.604Z,95195.31
2023-12-12T20:33:51.951Z,95192.91
2023-12-12T20:36:25.552Z,95187.88
2023-12-12T20:38:55.857Z,95192.13
2023-12-12T20:41:24.560Z,95185.53
2023-12-12T20:43:53.123Z,95192.88
2023-12-12T20:46:21.871Z,95186.53
2023-12-12T20:48:50.561Z,95177.06
2023-12-12T20:51:21.329Z,95173.63
2023-12-12T20:53:49.901Z,95166.00
2023-12-12T20:56:20.075Z,95174.66
2023-12-12T20:58:48.613Z,95166.56
2023-12-12T21:01:17.502Z,95165.19
2023-12-12T21:03:48.936Z,95159.63
2023-12-12T21:06:17.396Z,95166.00
2023-12-12T21:08:46.214Z,95154.66
2023-12-12T21:11:14.838Z,95170.16
2023-12-12T21:13:45.964Z,95155.94
2023-12-12T21:16:19.093Z,95160.66
2023-12-12T21:18:48.107Z,95158.34
2023-12-12T21:21:16.822Z,95157.78
2023-12-12T21:23:45.698Z,95171.25
2023-12-12T21:26:14.771Z,95173.09
2023-12-12T21:28:44.920Z,95169.66
2023-12-12T21:31:14.929Z,95180.69
2023-12-12T21:33:43.324Z,95195.44
2023-12-12T21:36:12.892Z,95230.63
2023-12-12T21:38:44.492Z,95225.59
2023-12-12T21:41:14.889Z,95218.84
2023-12-12T21:43:45.487Z,95212.09
2023-12-12T21:46:14.110Z,95210.38
2023-12-12T21:48:43.347Z,95214.34
2023-12-12T21:51:12.402Z,95207.41
2023-12-12T21:53:40.711Z,95207.16
2023-12-12T21:56:11.259Z,95224.50
2023-12-12T21:58:40.118Z,95226.50
2023-12-12T22:01:13.325Z,95224.06
2023-12-12T22:03:42.126Z,95222.78
2023-12-12T22:06:13.770Z,95208.03
2023-12-12T22:08:42.642Z,95218.91
2023-12-12T22:11:41.894Z,95213.03
2023-12-12T22:14:10.304Z,95219.88
2023-12-12T22:16:40.027Z,95215.03
2023-12-12T22:19:08.397Z,95214.75
2023-12-12T22:21:39.798Z,95202.22
2023-12-12T22:24:09.227Z,95201.41
2023-12-12T22:26:40.410Z,95188.78
2023-12-12T22:29:12.995Z,95184.34
2023-12-12T22:31:43.811Z,95200.47
2023-12-12T22:34:13.221Z,95195.69
2023-12-12T22:36:42.127Z,95186.84
2023-12-12T22:39:18.496Z,95169.13
2023-12-12T22:41:48.201Z,95183.50
2023-12-12T22:44:18.210Z,95181.47
2023-12-12T22:46:48.678Z,95174.94
2023-12-12T22:49:17.398Z,95192.50
2023-12-12T22:51:47.178Z,95191.13
2023-12-12T22:54:17.276Z,95189.31
2023-12-12T22:56:45.615Z,95185.09
2023-12-12T22:59:14.461Z,95177.56
2023-12-12T23:01:45.424Z,95181.63
2023-12-12T23:04:15.563Z,95181.56
2023-12-12T23:06:44.480Z,95181.41
2023-12-12T23:09:13.264Z,95175.53
2023-12-12T23:11:42.356Z,95176.72
2023-12-12T23:14:10.798Z,95180.41
2023-12-12T23:16:39.339Z,95171.47
2023-12-12T23:19:08.144Z,95177.91
2023-12-12T23:21:37.970Z,95172.34
2023-12-12T23:24:08.409Z,95169.94
2023-12-12T23:26:41.798Z,95179.13
2023-12-12T23:29:10.422Z,95184.31
2023-12-12T23:31:41.333Z,95181.13
2023-12-12T23:34:09.988Z,95184.53
2023-12-12T23:36:43.609Z,95186.38
2023-12-12T23:39:12.170Z,95183.66
2023-12-12T23:41:46.298Z,95187.09
2023-12-12T23:44:18.183Z,95183.13
2023-12-12T23:46:47.433Z,95184.38
2023-12-12T23:49:16.717Z,95187.88
2023-12-12T23:51:47.304Z,95183.44
2023-12-12T23:54:16.377Z,95181.44
2023-12-12T23:56:47.808Z,95186.78
2023-12-12T23:59:17.124Z,95178.09
